sensor_id;sensor_type;location;lat;lon;timestamp;temperature;humidity
44863;DHT22;30597;49.628;10.850;2024-03-02T00:00:19;21.80;55.50
44863;DHT22;30597;49.628;10.850;2024-03-02T00:02:49;21.80;55.50
44863;DHT22;30597;49.628;10.850;2024-03-02T00:05:20;21.80;55.30
44863;DHT22;30597;49.628;10.850;2024-03-02T00:07:52;21.80;55.10
44863;DHT22;30597;49.628;10.850;2024-03-02T00:10:20;21.90;55.10
44863;DHT22;30597;49.628;10.850;2024-03-02T00:12:48;21.90;55.10
44863;DHT22;30597;49.628;10.850;2024-03-02T00:17:53;21.70;55.00
44863;DHT22;30597;49.628;10.850;2024-03-02T00:20:22;21.70;55.30
44863;DHT22;30597;49.628;10.850;2024-03-02T00:22:48;21.70;55.40
44863;DHT22;30597;49.628;10.850;2024-03-02T00:25:13;21.60;55.40
44863;DHT22;30597;49.628;10.850;2024-03-02T00:27:39;21.60;55.50
44863;DHT22;30597;49.628;10.850;2024-03-02T00:30:34;21.70;55.80
44863;DHT22;30597;49.628;10.850;2024-03-02T00:33:01;21.60;55.80
44863;DHT22;30597;49.628;10.850;2024-03-02T00:35:27;21.60;55.80
44863;DHT22;30597;49.628;10.850;2024-03-02T00:37:53;21.60;55.90
44863;DHT22;30597;49.628;10.850;2024-03-02T00:40:19;21.70;56.30
44863;DHT22;30597;49.628;10.850;2024-03-02T00:42:45;21.60;55.90
44863;DHT22;30597;49.628;10.850;2024-03-02T00:45:11;21.60;56.00
44863;DHT22;30597;49.628;10.850;2024-03-02T00:47:40;21.60;56.10
44863;DHT22;30597;49.628;10.850;2024-03-02T00:50:05;21.60;56.10
44863;DHT22;30597;49.628;10.850;2024-03-02T00:52:32;21.60;56.20
44863;DHT22;30597;49.628;10.850;2024-03-02T00:54:58;21.50;56.10
44863;DHT22;30597;49.628;10.850;2024-03-02T00:57:24;21.70;56.30
44863;DHT22;30597;49.628;10.850;2024-03-02T00:59:51;21.60;56.40
44863;DHT22;30597;49.628;10.850;2024-03-02T01:02:17;21.50;56.20
44863;DHT22;30597;49.628;10.850;2024-03-02T01:04:45;21.50;55.50
44863;DHT22;30597;49.628;10.850;2024-03-02T01:07:11;21.60;55.60
44863;DHT22;30597;49.628;10.850;2024-03-02T01:09:36;21.50;55.70
44863;DHT22;30597;49.628;10.850;2024-03-02T01:12:02;21.40;55.60
44863;DHT22;30597;49.628;10.850;2024-03-02T01:14:28;21.40;55.70
44863;DHT22;30597;49.628;10.850;2024-03-02T01:16:53;21.40;55.80
44863;DHT22;30597;49.628;10.850;2024-03-02T01:19:19;21.40;55.80
44863;DHT22;30597;49.628;10.850;2024-03-02T01:21:44;21.30;55.80
44863;DHT22;30597;49.628;10.850;2024-03-02T01:24:10;21.40;56.00
44863;DHT22;30597;49.628;10.850;2024-03-02T01:26:35;21.30;56.00
44863;DHT22;30597;49.628;10.850;2024-03-02T01:29:01;21.30;56.00
44863;DHT22;30597;49.628;10.850;2024-03-02T01:31:26;21.20;56.60
44863;DHT22;30597;49.628;10.850;2024-03-02T01:33:52;21.30;56.10
44863;DHT22;30597;49.628;10.850;2024-03-02T01:36:17;21.20;56.10
44863;DHT22;30597;49.628;10.850;2024-03-02T01:38:43;21.30;56.20
44863;DHT22;30597;49.628;10.850;2024-03-02T01:41:09;21.20;56.20
44863;DHT22;30597;49.628;10.850;2024-03-02T01:43:35;21.20;56.20
44863;DHT22;30597;49.628;10.850;2024-03-02T01:46:00;21.20;56.40
44863;DHT22;30597;49.628;10.850;2024-03-02T01:48:26;21.30;56.50
44863;DHT22;30597;49.628;10.850;2024-03-02T01:50:52;21.10;56.50
44863;DHT22;30597;49.628;10.850;2024-03-02T01:53:17;21.10;56.50
44863;DHT22;30597;49.628;10.850;2024-03-02T01:55:43;21.10;56.60
44863;DHT22;30597;49.628;10.850;2024-03-02T01:58:08;21.10;56.60
44863;DHT22;30597;49.628;10.850;2024-03-02T02:00:34;21.10;56.70
44863;DHT22;30597;49.628;10.850;2024-03-02T02:03:00;21.10;56.70
44863;DHT22;30597;49.628;10.850;2024-03-02T02:05:26;21.10;56.70
44863;DHT22;30597;49.628;10.850;2024-03-02T02:07:52;21.10;56.70
44863;DHT22;30597;49.628;10.850;2024-03-02T02:10:17;21.10;56.70
44863;DHT22;30597;49.628;10.850;2024-03-02T02:12:43;21.00;56.70
44863;DHT22;30597;49.628;10.850;2024-03-02T02:17:47;21.00;56.70
44863;DHT22;30597;49.628;10.850;2024-03-02T02:20:12;21.00;56.70
44863;DHT22;30597;49.628;10.850;2024-03-02T02:22:38;21.00;56.80
44863;DHT22;30597;49.628;10.850;2024-03-02T02:25:04;21.00;56.80
44863;DHT22;30597;49.628;10.850;2024-03-02T02:27:29;21.00;57.00
44863;DHT22;30597;49.628;10.850;2024-03-02T02:29:56;21.00;57.00
44863;DHT22;30597;49.628;10.850;2024-03-02T02:32:21;21.00;57.20
44863;DHT22;30597;49.628;10.850;2024-03-02T02:34:47;21.00;57.00
44863;DHT22;30597;49.628;10.850;2024-03-02T02:37:17;20.90;57.10
44863;DHT22;30597;49.628;10.850;2024-03-02T02:39:43;21.00;57.00
44863;DHT22;30597;49.628;10.850;2024-03-02T02:42:09;20.90;57.00
44863;DHT22;30597;49.628;10.850;2024-03-02T02:44:34;20.90;57.00
44863;DHT22;30597;49.628;10.850;2024-03-02T02:47:00;20.90;57.00
44863;DHT22;30597;49.628;10.850;2024-03-02T02:49:25;20.90;57.00
44863;DHT22;30597;49.628;10.850;2024-03-02T02:51:52;20.90;57.00
44863;DHT22;30597;49.628;10.850;2024-03-02T02:54:17;20.90;57.00
44863;DHT22;30597;49.628;10.850;2024-03-02T02:56:43;20.90;57.00
44863;DHT22;30597;49.628;10.850;2024-03-02T02:59:08;20.90;57.00
44863;DHT22;30597;49.628;10.850;2024-03-02T03:01:34;20.80;56.90
44863;DHT22;30597;49.628;10.850;2024-03-02T03:03:59;20.80;56.90
44863;DHT22;30597;49.628;10.850;2024-03-02T03:06:25;20.80;56.90
44863;DHT22;30597;49.628;10.850;2024-03-02T03:08:51;20.80;56.90
44863;DHT22;30597;49.628;10.850;2024-03-02T03:11:16;20.80;56.90
44863;DHT22;30597;49.628;10.850;2024-03-02T03:13:42;20.90;57.10
44863;DHT22;30597;49.628;10.850;2024-03-02T03:16:07;20.80;57.00
44863;DHT22;30597;49.628;10.850;2024-03-02T03:18:34;20.90;57.00
44863;DHT22;30597;49.628;10.850;2024-03-02T03:21:00;20.80;56.90
44863;DHT22;30597;49.628;10.850;2024-03-02T03:23:25;20.70;56.90
44863;DHT22;30597;49.628;10.850;2024-03-02T03:25:51;20.70;56.90
44863;DHT22;30597;49.628;10.850;2024-03-02T03:28:16;20.70;56.90
44863;DHT22;30597;49.628;10.850;2024-03-02T03:30:42;20.70;56.90
44863;DHT22;30597;49.628;10.850;2024-03-02T03:33:08;20.70;56.90
44863;DHT22;30597;49.628;10.850;2024-03-02T03:35:34;20.70;57.00
44863;DHT22;30597;49.628;10.850;2024-03-02T03:38:00;20.80;57.10
44863;DHT22;30597;49.628;10.850;2024-03-02T03:40:26;20.80;57.20
44863;DHT22;30597;49.628;10.850;2024-03-02T03:42:51;20.70;56.70
44863;DHT22;30597;49.628;10.850;2024-03-02T03:45:17;20.80;56.70
44863;DHT22;30597;49.628;10.850;2024-03-02T03:47:43;20.70;56.70
44863;DHT22;30597;49.628;10.850;2024-03-02T03:50:09;20.70;56.70
44863;DHT22;30597;49.628;10.850;2024-03-02T03:52:34;20.70;56.80
44863;DHT22;30597;49.628;10.850;2024-03-02T03:55:00;20.70;56.90
44863;DHT22;30597;49.628;10.850;2024-03-02T03:57:26;20.60;56.70
44863;DHT22;30597;49.628;10.850;2024-03-02T03:59:52;20.70;56.90
44863;DHT22;30597;49.628;10.850;2024-03-02T04:02:18;20.70;56.90
44863;DHT22;30597;49.628;10.850;2024-03-02T04:04:43;20.60;56.90
44863;DHT22;30597;49.628;10.850;2024-03-02T04:07:09;20.60;56.90
44863;DHT22;30597;49.628;10.850;2024-03-02T04:09:34;20.60;57.00
44863;DHT22;30597;49.628;10.850;2024-03-02T04:12:00;20.60;57.00
44863;DHT22;30597;49.628;10.850;2024-03-02T04:14:25;20.60;57.00
44863;DHT22;30597;49.628;10.850;2024-03-02T04:16:51;20.60;57.10
44863;DHT22;30597;49.628;10.850;2024-03-02T04:19:17;20.50;57.10
44863;DHT22;30597;49.628;10.850;2024-03-02T04:21:42;20.50;57.10
44863;DHT22;30597;49.628;10.850;2024-03-02T04:24:07;20.50;57.20
44863;DHT22;30597;49.628;10.850;2024-03-02T04:26:33;20.50;57.30
44863;DHT22;30597;49.628;10.850;2024-03-02T04:28:59;20.50;57.30
44863;DHT22;30597;49.628;10.850;2024-03-02T04:31:24;20.50;57.40
44863;DHT22;30597;49.628;10.850;2024-03-02T04:33:50;20.40;57.30
44863;DHT22;30597;49.628;10.850;2024-03-02T04:36:15;20.40;57.40
44863;DHT22;30597;49.628;10.850;2024-03-02T04:38:41;20.40;57.40
44863;DHT22;30597;49.628;10.850;2024-03-02T04:41:06;20.40;57.50
44863;DHT22;30597;49.628;10.850;2024-03-02T04:43:32;20.40;57.60
44863;DHT22;30597;49.628;10.850;2024-03-02T04:45:58;20.40;57.60
44863;DHT22;30597;49.628;10.850;2024-03-02T04:48:24;20.30;57.60
44863;DHT22;30597;49.628;10.850;2024-03-02T04:50:50;20.40;57.60
44863;DHT22;30597;49.628;10.850;2024-03-02T04:53:16;20.30;57.60
44863;DHT22;30597;49.628;10.850;2024-03-02T04:55:41;20.30;57.60
44863;DHT22;30597;49.628;10.850;2024-03-02T04:58:07;20.30;57.70
44863;DHT22;30597;49.628;10.850;2024-03-02T05:00:33;20.30;57.70
44863;DHT22;30597;49.628;10.850;2024-03-02T05:02:59;20.30;57.80
44863;DHT22;30597;49.628;10.850;2024-03-02T05:05:24;20.30;57.70
44863;DHT22;30597;49.628;10.850;2024-03-02T05:07:50;20.30;57.80
44863;DHT22;30597;49.628;10.850;2024-03-02T05:10:15;20.30;57.80
44863;DHT22;30597;49.628;10.850;2024-03-02T05:12:41;20.30;57.80
44863;DHT22;30597;49.628;10.850;2024-03-02T05:15:11;20.30;57.90
44863;DHT22;30597;49.628;10.850;2024-03-02T05:17:37;20.20;57.80
44863;DHT22;30597;49.628;10.850;2024-03-02T05:20:07;20.30;57.90
44863;DHT22;30597;49.628;10.850;2024-03-02T05:22:36;20.30;58.00
44863;DHT22;30597;49.628;10.850;2024-03-02T05:25:03;20.20;57.90
44863;DHT22;30597;49.628;10.850;2024-03-02T05:27:28;20.30;57.90
44863;DHT22;30597;49.628;10.850;2024-03-02T05:29:54;20.30;57.90
44863;DHT22;30597;49.628;10.850;2024-03-02T05:32:20;20.20;57.80
44863;DHT22;30597;49.628;10.850;2024-03-02T05:34:46;20.20;57.90
44863;DHT22;30597;49.628;10.850;2024-03-02T05:37:11;20.30;57.90
44863;DHT22;30597;49.628;10.850;2024-03-02T05:39:37;20.20;57.90
44863;DHT22;30597;49.628;10.850;2024-03-02T05:42:03;20.20;58.00
44863;DHT22;30597;49.628;10.850;2024-03-02T05:44:28;20.20;58.00
44863;DHT22;30597;49.628;10.850;2024-03-02T05:46:54;20.20;58.00
44863;DHT22;30597;49.628;10.850;2024-03-02T05:49:20;20.30;58.20
44863;DHT22;30597;49.628;10.850;2024-03-02T05:51:45;20.20;58.00
44863;DHT22;30597;49.628;10.850;2024-03-02T05:54:11;20.20;58.00
44863;DHT22;30597;49.628;10.850;2024-03-02T05:56:36;20.20;58.00
44863;DHT22;30597;49.628;10.850;2024-03-02T05:59:02;20.20;57.90
44863;DHT22;30597;49.628;10.850;2024-03-02T06:01:48;20.20;57.90
44863;DHT22;30597;49.628;10.850;2024-03-02T06:04:16;20.20;57.90
44863;DHT22;30597;49.628;10.850;2024-03-02T06:06:42;20.20;57.80
44863;DHT22;30597;49.628;10.850;2024-03-02T06:09:08;20.20;57.90
44863;DHT22;30597;49.628;10.850;2024-03-02T06:11:37;20.10;57.80
44863;DHT22;30597;49.628;10.850;2024-03-02T06:14:04;20.20;57.90
44863;DHT22;30597;49.628;10.850;2024-03-02T06:16:30;20.20;57.90
44863;DHT22;30597;49.628;10.850;2024-03-02T06:18:56;20.20;57.80
44863;DHT22;30597;49.628;10.850;2024-03-02T06:21:23;20.20;57.80
44863;DHT22;30597;49.628;10.850;2024-03-02T06:23:49;20.20;58.30
44863;DHT22;30597;49.628;10.850;2024-03-02T06:26:14;20.10;57.70
44863;DHT22;30597;49.628;10.850;2024-03-02T06:28:40;20.10;57.70
44863;DHT22;30597;49.628;10.850;2024-03-02T06:31:06;20.10;57.80
44863;DHT22;30597;49.628;10.850;2024-03-02T06:33:31;20.20;57.90
44863;DHT22;30597;49.628;10.850;2024-03-02T06:35:57;20.10;57.90
44863;DHT22;30597;49.628;10.850;2024-03-02T06:38:22;20.10;57.90
44863;DHT22;30597;49.628;10.850;2024-03-02T06:40:48;20.20;57.90
44863;DHT22;30597;49.628;10.850;2024-03-02T06:43:13;20.10;57.80
44863;DHT22;30597;49.628;10.850;2024-03-02T06:45:39;20.30;58.00
44863;DHT22;30597;49.628;10.850;2024-03-02T06:48:04;20.20;57.80
44863;DHT22;30597;49.628;10.850;2024-03-02T06:50:30;20.20;57.70
44863;DHT22;30597;49.628;10.850;2024-03-02T06:52:56;20.20;57.60
44863;DHT22;30597;49.628;10.850;2024-03-02T06:55:22;20.20;57.60
44863;DHT22;30597;49.628;10.850;2024-03-02T06:57:47;20.20;57.50
44863;DHT22;30597;49.628;10.850;2024-03-02T07:00:13;20.20;57.50
44863;DHT22;30597;49.628;10.850;2024-03-02T07:02:39;20.20;57.50
44863;DHT22;30597;49.628;10.850;2024-03-02T07:05:07;20.20;57.50
44863;DHT22;30597;49.628;10.850;2024-03-02T07:07:33;20.20;57.80
44863;DHT22;30597;49.628;10.850;2024-03-02T07:10:00;20.30;57.90
44863;DHT22;30597;49.628;10.850;2024-03-02T07:12:26;20.40;57.30
44863;DHT22;30597;49.628;10.850;2024-03-02T07:14:51;20.50;57.00
44863;DHT22;30597;49.628;10.850;2024-03-02T07:17:30;20.70;57.10
44863;DHT22;30597;49.628;10.850;2024-03-02T07:19:56;20.80;57.10
44863;DHT22;30597;49.628;10.850;2024-03-02T07:22:22;20.90;56.90
44863;DHT22;30597;49.628;10.850;2024-03-02T07:24:48;21.00;56.60
44863;DHT22;30597;49.628;10.850;2024-03-02T07:27:14;21.00;56.00
44863;DHT22;30597;49.628;10.850;2024-03-02T07:29:40;21.10;55.90
44863;DHT22;30597;49.628;10.850;2024-03-02T07:32:06;21.20;55.70
44863;DHT22;30597;49.628;10.850;2024-03-02T07:34:32;21.30;55.70
44863;DHT22;30597;49.628;10.850;2024-03-02T07:36:58;21.40;55.70
44863;DHT22;30597;49.628;10.850;2024-03-02T07:39:24;21.40;55.60
44863;DHT22;30597;49.628;10.850;2024-03-02T07:41:50;21.50;55.60
44863;DHT22;30597;49.628;10.850;2024-03-02T07:44:16;21.50;55.50
44863;DHT22;30597;49.628;10.850;2024-03-02T07:46:42;21.60;55.30
44863;DHT22;30597;49.628;10.850;2024-03-02T07:49:08;21.60;55.00
44863;DHT22;30597;49.628;10.850;2024-03-02T07:51:34;21.60;54.80
44863;DHT22;30597;49.628;10.850;2024-03-02T07:54:00;21.60;54.60
44863;DHT22;30597;49.628;10.850;2024-03-02T07:56:25;21.70;54.50
44863;DHT22;30597;49.628;10.850;2024-03-02T07:58:51;21.70;54.40
44863;DHT22;30597;49.628;10.850;2024-03-02T08:01:17;21.80;54.30
44863;DHT22;30597;49.628;10.850;2024-03-02T08:03:43;21.80;54.20
44863;DHT22;30597;49.628;10.850;2024-03-02T08:06:14;21.80;54.10
44863;DHT22;30597;49.628;10.850;2024-03-02T08:08:40;21.80;54.00
44863;DHT22;30597;49.628;10.850;2024-03-02T08:11:06;21.90;53.90
44863;DHT22;30597;49.628;10.850;2024-03-02T08:13:31;21.80;53.80
44863;DHT22;30597;49.628;10.850;2024-03-02T08:15:57;21.80;53.70
44863;DHT22;30597;49.628;10.850;2024-03-02T08:18:23;21.90;53.60
44863;DHT22;30597;49.628;10.850;2024-03-02T08:20:48;21.90;53.60
44863;DHT22;30597;49.628;10.850;2024-03-02T08:23:14;22.00;53.60
44863;DHT22;30597;49.628;10.850;2024-03-02T08:25:39;22.00;54.10
44863;DHT22;30597;49.628;10.850;2024-03-02T08:28:05;22.00;53.40
44863;DHT22;30597;49.628;10.850;2024-03-02T08:30:31;22.00;53.30
44863;DHT22;30597;49.628;10.850;2024-03-02T08:32:57;22.20;53.30
44863;DHT22;30597;49.628;10.850;2024-03-02T08:35:22;22.10;53.10
44863;DHT22;30597;49.628;10.850;2024-03-02T08:37:48;22.10;53.00
44863;DHT22;30597;49.628;10.850;2024-03-02T08:40:14;22.20;52.90
44863;DHT22;30597;49.628;10.850;2024-03-02T08:42:40;22.20;52.90
44863;DHT22;30597;49.628;10.850;2024-03-02T08:45:06;22.20;52.70
44863;DHT22;30597;49.628;10.850;2024-03-02T08:47:32;22.30;52.70
44863;DHT22;30597;49.628;10.850;2024-03-02T08:49:59;22.30;52.60
44863;DHT22;30597;49.628;10.850;2024-03-02T08:52:24;22.30;52.60
44863;DHT22;30597;49.628;10.850;2024-03-02T08:54:50;22.30;52.40
44863;DHT22;30597;49.628;10.850;2024-03-02T08:57:15;22.30;52.30
44863;DHT22;30597;49.628;10.850;2024-03-02T08:59:41;22.30;52.30
44863;DHT22;30597;49.628;10.850;2024-03-02T09:02:07;22.40;52.30
44863;DHT22;30597;49.628;10.850;2024-03-02T09:04:32;22.40;52.30
44863;DHT22;30597;49.628;10.850;2024-03-02T09:06:58;22.40;52.30
44863;DHT22;30597;49.628;10.850;2024-03-02T09:09:23;22.40;52.20
44863;DHT22;30597;49.628;10.850;2024-03-02T09:11:49;22.40;52.20
44863;DHT22;30597;49.628;10.850;2024-03-02T09:14:15;22.50;52.10
44863;DHT22;30597;49.628;10.850;2024-03-02T09:16:40;22.40;52.10
44863;DHT22;30597;49.628;10.850;2024-03-02T09:19:06;22.50;52.10
44863;DHT22;30597;49.628;10.850;2024-03-02T09:21:32;22.50;52.00
44863;DHT22;30597;49.628;10.850;2024-03-02T09:23:57;22.50;52.00
44863;DHT22;30597;49.628;10.850;2024-03-02T09:26:23;22.50;52.00
44863;DHT22;30597;49.628;10.850;2024-03-02T09:28:50;22.50;51.90
44863;DHT22;30597;49.628;10.850;2024-03-02T09:31:16;22.50;51.90
44863;DHT22;30597;49.628;10.850;2024-03-02T09:33:41;22.70;51.90
44863;DHT22;30597;49.628;10.850;2024-03-02T09:36:17;22.60;51.80
44863;DHT22;30597;49.628;10.850;2024-03-02T09:38:43;22.60;51.80
44863;DHT22;30597;49.628;10.850;2024-03-02T09:41:09;22.60;51.70
44863;DHT22;30597;49.628;10.850;2024-03-02T09:43:35;22.60;51.70
44863;DHT22;30597;49.628;10.850;2024-03-02T09:46:00;22.70;51.70
44863;DHT22;30597;49.628;10.850;2024-03-02T09:48:26;22.60;51.60
44863;DHT22;30597;49.628;10.850;2024-03-02T09:50:52;22.70;51.50
44863;DHT22;30597;49.628;10.850;2024-03-02T09:53:18;22.70;51.50
44863;DHT22;30597;49.628;10.850;2024-03-02T09:55:47;22.70;51.50
44863;DHT22;30597;49.628;10.850;2024-03-02T09:58:12;22.80;51.50
44863;DHT22;30597;49.628;10.850;2024-03-02T10:00:38;22.70;51.40
44863;DHT22;30597;49.628;10.850;2024-03-02T10:03:04;22.80;51.50
44863;DHT22;30597;49.628;10.850;2024-03-02T10:05:31;22.70;51.40
44863;DHT22;30597;49.628;10.850;2024-03-02T10:08:03;22.70;51.40
44863;DHT22;30597;49.628;10.850;2024-03-02T10:10:40;22.80;51.30
44863;DHT22;30597;49.628;10.850;2024-03-02T10:13:10;22.80;51.40
44863;DHT22;30597;49.628;10.850;2024-03-02T10:15:36;22.80;51.30
44863;DHT22;30597;49.628;10.850;2024-03-02T10:18:08;22.80;51.30
44863;DHT22;30597;49.628;10.850;2024-03-02T10:20:33;22.80;51.20
44863;DHT22;30597;49.628;10.850;2024-03-02T10:23:16;22.80;51.20
44863;DHT22;30597;49.628;10.850;2024-03-02T10:25:43;22.80;51.10
44863;DHT22;30597;49.628;10.850;2024-03-02T10:28:09;22.90;51.20
44863;DHT22;30597;49.628;10.850;2024-03-02T10:30:35;22.90;51.10
44863;DHT22;30597;49.628;10.850;2024-03-02T10:33:01;22.90;51.00
44863;DHT22;30597;49.628;10.850;2024-03-02T10:35:28;22.90;51.00
44863;DHT22;30597;49.628;10.850;2024-03-02T10:37:54;22.90;50.90
44863;DHT22;30597;49.628;10.850;2024-03-02T10:40:22;22.90;50.80
44863;DHT22;30597;49.628;10.850;2024-03-02T10:42:49;23.00;50.80
44863;DHT22;30597;49.628;10.850;2024-03-02T10:45:16;22.90;50.70
44863;DHT22;30597;49.628;10.850;2024-03-02T10:47:47;23.00;50.70
44863;DHT22;30597;49.628;10.850;2024-03-02T10:50:12;23.00;50.70
44863;DHT22;30597;49.628;10.850;2024-03-02T10:52:38;23.00;50.50
44863;DHT22;30597;49.628;10.850;2024-03-02T10:55:09;23.00;50.60
44863;DHT22;30597;49.628;10.850;2024-03-02T10:57:51;23.00;50.60
44863;DHT22;30597;49.628;10.850;2024-03-02T11:00:19;23.10;50.60
44863;DHT22;30597;49.628;10.850;2024-03-02T11:02:58;23.00;50.40
44863;DHT22;30597;49.628;10.850;2024-03-02T11:05:27;23.10;50.50
44863;DHT22;30597;49.628;10.850;2024-03-02T11:07:57;23.00;50.40
44863;DHT22;30597;49.628;10.850;2024-03-02T11:10:25;23.10;50.50
44863;DHT22;30597;49.628;10.850;2024-03-02T11:12:57;23.10;50.40
44863;DHT22;30597;49.628;10.850;2024-03-02T11:15:27;23.10;50.30
44863;DHT22;30597;49.628;10.850;2024-03-02T11:17:53;23.10;50.20
44863;DHT22;30597;49.628;10.850;2024-03-02T11:20:20;23.10;50.90
44863;DHT22;30597;49.628;10.850;2024-03-02T11:22:46;23.20;50.30
44863;DHT22;30597;49.628;10.850;2024-03-02T11:25:28;23.20;50.10
44863;DHT22;30597;49.628;10.850;2024-03-02T11:33:04;23.20;50.00
44863;DHT22;30597;49.628;10.850;2024-03-02T11:35:37;23.20;50.00
44863;DHT22;30597;49.628;10.850;2024-03-02T11:38:04;23.20;50.00
44863;DHT22;30597;49.628;10.850;2024-03-02T11:40:30;23.20;50.00
44863;DHT22;30597;49.628;10.850;2024-03-02T11:42:56;23.20;49.90
44863;DHT22;30597;49.628;10.850;2024-03-02T11:45:25;23.20;49.90
44863;DHT22;30597;49.628;10.850;2024-03-02T11:47:53;23.30;50.00
44863;DHT22;30597;49.628;10.850;2024-03-02T11:50:29;23.30;49.90
44863;DHT22;30597;49.628;10.850;2024-03-02T11:52:56;23.30;49.90
44863;DHT22;30597;49.628;10.850;2024-03-02T11:55:23;23.30;50.10
44863;DHT22;30597;49.628;10.850;2024-03-02T11:57:52;23.30;50.30
44863;DHT22;30597;49.628;10.850;2024-03-02T12:00:18;23.30;50.60
44863;DHT22;30597;49.628;10.850;2024-03-02T12:02:46;23.40;50.70
44863;DHT22;30597;49.628;10.850;2024-03-02T12:05:18;23.40;50.80
44863;DHT22;30597;49.628;10.850;2024-03-02T12:07:44;23.40;50.90
44863;DHT22;30597;49.628;10.850;2024-03-02T12:10:10;23.40;51.00
44863;DHT22;30597;49.628;10.850;2024-03-02T12:12:36;23.50;51.00
44863;DHT22;30597;49.628;10.850;2024-03-02T12:15:02;23.60;51.10
44863;DHT22;30597;49.628;10.850;2024-03-02T12:17:29;23.50;51.20
44863;DHT22;30597;49.628;10.850;2024-03-02T12:19:54;23.50;51.10
44863;DHT22;30597;49.628;10.850;2024-03-02T12:22:21;23.60;51.30
44863;DHT22;30597;49.628;10.850;2024-03-02T12:24:47;23.60;51.30
44863;DHT22;30597;49.628;10.850;2024-03-02T12:27:14;23.60;51.30
44863;DHT22;30597;49.628;10.850;2024-03-02T12:29:41;23.70;51.20
44863;DHT22;30597;49.628;10.850;2024-03-02T12:32:06;23.70;50.70
44863;DHT22;30597;49.628;10.850;2024-03-02T12:34:32;23.60;50.50
44863;DHT22;30597;49.628;10.850;2024-03-02T12:36:58;23.70;50.50
44863;DHT22;30597;49.628;10.850;2024-03-02T12:39:23;23.60;50.50
44863;DHT22;30597;49.628;10.850;2024-03-02T12:41:50;23.60;50.40
44863;DHT22;30597;49.628;10.850;2024-03-02T12:44:17;23.60;50.40
44863;DHT22;30597;49.628;10.850;2024-03-02T12:46:43;23.60;50.40
44863;DHT22;30597;49.628;10.850;2024-03-02T12:49:11;23.60;50.30
44863;DHT22;30597;49.628;10.850;2024-03-02T12:51:38;23.60;50.30
44863;DHT22;30597;49.628;10.850;2024-03-02T12:54:09;23.60;50.30
44863;DHT22;30597;49.628;10.850;2024-03-02T12:56:38;23.60;50.30
44863;DHT22;30597;49.628;10.850;2024-03-02T12:59:04;23.60;50.00
44863;DHT22;30597;49.628;10.850;2024-03-02T13:01:30;23.60;49.90
44863;DHT22;30597;49.628;10.850;2024-03-02T13:03:57;23.70;50.00
44863;DHT22;30597;49.628;10.850;2024-03-02T13:06:23;23.60;49.90
44863;DHT22;30597;49.628;10.850;2024-03-02T13:08:50;23.70;50.00
44863;DHT22;30597;49.628;10.850;2024-03-02T13:11:16;23.70;49.80
44863;DHT22;30597;49.628;10.850;2024-03-02T13:13:42;23.70;49.90
44863;DHT22;30597;49.628;10.850;2024-03-02T13:16:09;23.60;49.80
44863;DHT22;30597;49.628;10.850;2024-03-02T13:18:35;23.70;49.90
44863;DHT22;30597;49.628;10.850;2024-03-02T13:21:01;23.80;49.80
44863;DHT22;30597;49.628;10.850;2024-03-02T13:23:26;23.70;49.80
44863;DHT22;30597;49.628;10.850;2024-03-02T13:25:52;23.60;49.70
44863;DHT22;30597;49.628;10.850;2024-03-02T13:28:18;23.60;49.60
44863;DHT22;30597;49.628;10.850;2024-03-02T13:30:43;23.70;49.80
44863;DHT22;30597;49.628;10.850;2024-03-02T13:33:09;23.70;49.80
44863;DHT22;30597;49.628;10.850;2024-03-02T13:35:34;23.60;49.70
44863;DHT22;30597;49.628;10.850;2024-03-02T13:38:00;23.60;49.70
44863;DHT22;30597;49.628;10.850;2024-03-02T13:40:25;23.60;49.60
44863;DHT22;30597;49.628;10.850;2024-03-02T13:42:51;23.70;49.70
44863;DHT22;30597;49.628;10.850;2024-03-02T13:45:19;23.70;49.70
44863;DHT22;30597;49.628;10.850;2024-03-02T13:47:44;23.70;49.70
44863;DHT22;30597;49.628;10.850;2024-03-02T13:50:10;23.70;49.70
44863;DHT22;30597;49.628;10.850;2024-03-02T13:52:35;23.70;49.60
44863;DHT22;30597;49.628;10.850;2024-03-02T13:55:01;23.70;49.60
44863;DHT22;30597;49.628;10.850;2024-03-02T13:57:27;23.70;49.60
44863;DHT22;30597;49.628;10.850;2024-03-02T13:59:53;23.70;49.60
44863;DHT22;30597;49.628;10.850;2024-03-02T14:02:20;23.70;49.70
44863;DHT22;30597;49.628;10.850;2024-03-02T14:04:45;23.70;49.60
44863;DHT22;30597;49.628;10.850;2024-03-02T14:07:13;23.70;49.70
44863;DHT22;30597;49.628;10.850;2024-03-02T14:09:39;23.70;49.60
44863;DHT22;30597;49.628;10.850;2024-03-02T14:12:05;23.70;49.60
44863;DHT22;30597;49.628;10.850;2024-03-02T14:14:31;23.70;49.70
44863;DHT22;30597;49.628;10.850;2024-03-02T14:16:57;23.70;49.70
44863;DHT22;30597;49.628;10.850;2024-03-02T14:19:29;23.60;49.70
44863;DHT22;30597;49.628;10.850;2024-03-02T14:21:55;23.60;49.60
44863;DHT22;30597;49.628;10.850;2024-03-02T14:24:21;23.60;49.70
44863;DHT22;30597;49.628;10.850;2024-03-02T14:26:52;23.70;49.80
44863;DHT22;30597;49.628;10.850;2024-03-02T14:29:18;23.70;49.70
44863;DHT22;30597;49.628;10.850;2024-03-02T14:31:43;23.70;49.60
44863;DHT22;30597;49.628;10.850;2024-03-02T14:34:09;23.70;49.60
44863;DHT22;30597;49.628;10.850;2024-03-02T14:36:35;23.80;49.70
44863;DHT22;30597;49.628;10.850;2024-03-02T14:39:00;23.70;49.60
44863;DHT22;30597;49.628;10.850;2024-03-02T14:41:26;23.80;49.70
44863;DHT22;30597;49.628;10.850;2024-03-02T14:43:52;23.70;49.60
44863;DHT22;30597;49.628;10.850;2024-03-02T14:46:17;23.70;49.50
44863;DHT22;30597;49.628;10.850;2024-03-02T14:48:44;23.70;49.50
44863;DHT22;30597;49.628;10.850;2024-03-02T14:51:11;23.80;49.70
44863;DHT22;30597;49.628;10.850;2024-03-02T14:53:37;23.70;49.50
44863;DHT22;30597;49.628;10.850;2024-03-02T14:56:04;23.70;49.50
44863;DHT22;30597;49.628;10.850;2024-03-02T14:58:29;23.60;49.50
44863;DHT22;30597;49.628;10.850;2024-03-02T15:00:55;23.60;49.40
44863;DHT22;30597;49.628;10.850;2024-03-02T15:03:20;23.60;49.40
44863;DHT22;30597;49.628;10.850;2024-03-02T15:05:46;23.70;49.50
44863;DHT22;30597;49.628;10.850;2024-03-02T15:08:12;23.70;49.60
44863;DHT22;30597;49.628;10.850;2024-03-02T15:10:38;23.60;49.40
44863;DHT22;30597;49.628;10.850;2024-03-02T15:13:04;23.70;49.50
44863;DHT22;30597;49.628;10.850;2024-03-02T15:15:29;23.70;49.40
44863;DHT22;30597;49.628;10.850;2024-03-02T15:17:55;23.60;49.40
44863;DHT22;30597;49.628;10.850;2024-03-02T15:20:20;23.70;49.50